Aérodrome :
LOGIN :

S'inscrire | Disclaimer

   EN    FR    IT 

 










Légende :    VFR   VFR Marginal   IFR   IFR Intensif   IFR Très Intensif
Visi : 
Plafond : 
>= 8 km
>= 3000ft
5 à 8 km
1000 à 3000 ft
1500m à 5 km
500 à 1000 ft
800 à 1500m
200 à 500 ft
< 800m
< 200 ft
Symboles :   Orages  Brouillard  Fortes neiges  Fortes précipitations  Vent > 20 kt
SIGMETs :   Divers  Orages  Givrage  Turbulence  Onde Orograph.  Cendres Volcan.






- Altitude de l'aérodrome : 102 ft
- Code IATA : CNG


LFBG - Cognac

DERNIER METAR :
  • 101130Z AUTO 09010KT 030V130 9999 ////// 30/17 Q1012

METARs EXPIRÉS :
  • 101100Z AUTO 08008KT 050V120 9999 ////// 28/19 Q1012
  • 101030Z AUTO 06011KT 9999 ////// 26/19 Q1012
  • 101000Z AUTO 08013KT 9999 ////// 26/19 Q1012
  • 100930Z AUTO 06011KT 9999 ////// 25/20 Q1012
  • 100900Z AUTO 07009KT 9999 ////// 24/20 Q1011

TAF TAF LFBG
Valide du 10 à 09h jusqu'au 11 à 09h UTC


100800Z 1009/1109 25008KT CAVOK
PROB40
TEMPO 1009/1010 4000 -TSRA SCT100CB
PROB30
TEMPO 1019/1024 4000 TSRA BKN100CB



MET'MAP, la Météo Aéronautique d'un coup d'oeil ! - Copyright ORBIFLY Décembre 2007 - Disclaimer

ORBIFLY MET'MAP TEAM :

Programmation & Développement : Alexandra Zaïnal
Sur une idée originale de : Baudouin d'Aumeries
Assistance à la programmation : Marc-Olivier Méhu
Soutien technique & logistique : Manuel Goepfert

Contact : metmap@orbifly.com




SOURCES & CREDITS :

   NOAA